• Join FlightAware (Why Join?)
  • Login
  • US Flag 
Rudolph Flight #1: Arrived! 
08:20AM EST


 

Airport Tracker/Info


-or-


 

Live Flight TrackerFlight Track Log ✈ VH-LMD ✈ 23-Aug-2013 ✈ YRED / RCL - YHBA / HVB

Flight Track Log - Related Links

Times and Time Zones

All times are in EDT time to prevent confusion due to time zone crossing. See the VH-LMD flight status page for this flight to view local times or setup timezone preferences in your user account.

Time Position Orientation Groundspeed Altitude Reporting Facility
EDT Latitude Longitude Course Direction KTS MPH feet Rate Location/Type
05:26PM -27.1691 153.0593 357° North 103 119 1,400  Level Aus ATC (RADAR)
05:27PM -27.1409 153.0579 357° North 123 142 1,600 300 Climbing Aus ATC (RADAR)
05:28PM -27.1146 153.0564 357° North 138 159 1,900 480 Climbing Aus ATC (RADAR)
05:29PM -27.0728 153.0558 359° North 130 150 2,500 480 Climbing Aus ATC (RADAR)
05:30PM -27.0421 153.0546 358° North 131 151 2,900 480 Climbing Aus ATC (RADAR)
05:30PM -27.0202 153.0536 358° North 135 155 3,200 480 Climbing Aus ATC (RADAR)
05:31PM -26.9948 153.0510 355° North 138 159 3,500 480 Climbing Aus ATC (RADAR)
05:32PM -26.9722 153.0482 354° North 139 160 3,800 540 Climbing Aus ATC (RADAR)
05:32PM -26.9528 153.0467 356° North 140 161 4,100 480 Climbing Aus ATC (RADAR)
05:33PM -26.9338 153.0429 350° North 138 159 4,300 540 Climbing Aus ATC (RADAR)
05:33PM -26.9102 153.0438 North 143 165 4,700 600 Climbing Aus ATC (RADAR)
05:34PM -26.8684 153.0382 353° North 139 160 5,300 480 Climbing Aus ATC (RADAR)
05:35PM -26.8293 153.0347 356° North 140 161 5,800 480 Climbing Aus ATC (RADAR)
05:36PM -26.8007 153.0311 353° North 139 160 6,200 600 Climbing Aus ATC (RADAR)
05:37PM -26.7789 153.0276 352° North 135 155 6,600 300 Climbing Aus ATC (RADAR)
05:37PM -26.7516 153.0240 353° North 150 173 6,600  Level Aus ATC (RADAR)
05:38PM -26.7067 153.0185 354° North 162 186 6,600  Level Aus ATC (RADAR)
05:39PM -26.6533 153.0149 357° North 164 189 6,600  Level Aus ATC (RADAR)
05:40PM -26.6117 153.0110 355° North 162 186 6,600  Level Aus ATC (RADAR)
05:41PM -26.5779 153.0080 355° North 163 188 6,600  Level Aus ATC (RADAR)
05:42PM -26.5334 153.0020 353° North 161 185 6,600  Level Aus ATC (RADAR)
05:43PM -26.5031 152.9999 356° North 163 188 6,600  Level Aus ATC (RADAR)
05:43PM -26.4769 152.9973 355° North 162 186 6,600  Level Aus ATC (RADAR)
05:44PM -26.4245 152.9929 356° North 162 186 6,600  Level Aus ATC (RADAR)
05:45PM -26.3790 152.9910 358° North 164 189 6,600  Level Aus ATC (RADAR)
05:46PM -26.3451 152.9868 354° North 166 191 6,600  Level Aus ATC (RADAR)
05:47PM -26.3033 152.9826 355° North 165 190 6,600  Level Aus ATC (RADAR)
05:48PM -26.2691 152.9764 351° North 167 192 6,600  Level Aus ATC (RADAR)
05:48PM -26.2460 152.9729 352° North 167 192 6,600  Level Aus ATC (RADAR)
05:50PM -26.1840 152.9683 356° North 167 192 6,600  Level Aus ATC (RADAR)
05:51PM -26.1381 152.9632 354° North 166 191 6,600  Level Aus ATC (RADAR)
05:51PM -26.1031 152.9587 353° North 168 193 6,600  Level Aus ATC (RADAR)
05:52PM -26.0801 152.9549 352° North 166 191 6,600  Level Aus ATC (RADAR)
05:53PM -26.0531 152.9517 354° North 167 192 6,600  Level Aus ATC (RADAR)
05:53PM -26.0258 152.9497 356° North 168 193 6,600  Level Aus ATC (RADAR)
05:54PM -25.9721 152.9429 353° North 166 191 6,600  Level Aus ATC (RADAR)
05:55PM -25.9453 152.9395 354° North 164 189 6,600  Level Aus ATC (RADAR)
05:56PM -25.9029 152.9384 359° North 165 190 6,600 -60 Level Aus ATC (RADAR)
05:57PM -25.8686 152.9345 354° North 165 190 6,500 -360 Descending Aus ATC (RADAR)
05:57PM -25.8406 152.9317 355° North 172 198 6,200 -480 Descending Aus ATC (RADAR)
05:58PM -25.8165 152.9287 354° North 175 201 6,000 -300 Descending Aus ATC (RADAR)
05:58PM -25.7830 152.9261 356° North 181 208 5,900 -300 Descending Aus ATC (RADAR)
05:59PM -25.7509 152.9203 351° North 176 203 5,600 -420 Descending Aus ATC (RADAR)
06:00PM -25.6962 152.9149 355° North 186 214 5,200 -480 Descending Aus ATC (RADAR)
06:01PM -25.6293 152.9112 357° North 181 208 -540 Descending Aus ATC (RADAR)
06:02PM -25.6010 152.9052 349° North 179 206 4,200 7,200 Climbing Aus ATC (RADAR)
06:04PM -25.5416 152.8999 355° North  Level Estimated
06:11PM -25.3189 152.8803 355° North  Level Estimated
06:12PM -25.3189 152.8803 299° West  Level Estimated
06:13PM -25.3189 152.8803 299° West  Level Estimated
06:14PM -25.3189 152.8803 299° West  Level Estimated
06:15PM -25.3189 152.8803 299° West  Level Estimated